Latest Weather Observations for Parawa West

IDS60901

Issued at 10:31 am CST Sunday 16 June 2019 (issued every 10 minutes, with the page automatically refreshed every 10 minutes)

About weather observations | Map of Adelaide area stations | Latest observations for Adelaide area | Other Formats
Station Details ID: 023875 Name: SECOND VALLEY FOREST AWS Lat: -35.57 Lon: 138.29 Height: 341.0 m
Data from the previous 72 hours. | See also: Recent months at Parawa West
Date/Time
CST
Temp
°C
App
Temp
°C
Dew
Point
°C
Rel
Hum
%
Delta-T
°C
Wind Press
QNH
hPa
Press
MSL
hPa
Rain since
9am
mm
Dir  Spd
km/h
Gust
km/h
Spd
kts
Gust
kts
16/10:30am 12.0 11.7 10.1 88 1.0 NNE 2 9 1 5 1021.6 1021.8 0.0
16/10:00am 11.5 10.8 9.9 90 0.8 NNE 4 9 2 5 1021.6 1021.8 0.0
16/09:30am 10.5 10.0 9.4 93 0.6 NNE 2 7 1 4 1021.3 1021.5 0.0
16/09:00am 9.8 9.6 9.0 95 0.4 CALM 0 2 0 1 1020.9 1021.1 8.6
16/08:30am 8.7 7.9 8.3 97 0.2 ENE 2 4 1 2 1020.7 1020.9 8.6
16/08:00am 8.1 6.8 7.8 98 0.1 SW 4 7 2 4 1020.2 1020.5 8.4
16/07:30am 7.5 6.9 7.2 98 0.1 CALM 0 0 0 0 1019.7 1020.0 8.4
16/07:00am 7.7 6.0 7.6 99 0.0 NW 6 9 3 5 1019.6 1019.8 8.4
16/06:30am 7.5 6.9 7.2 98 0.1 CALM 0 2 0 1 1019.4 1019.6 8.4
16/06:00am 8.2 7.7 7.9 98 0.1 CALM 0 0 0 0 1019.1 1019.3 8.4
16/05:30am 8.8 8.1 8.5 98 0.1 NE 2 4 1 2 1018.8 1019.0 8.4
16/05:00am 9.7 9.2 9.4 98 0.2 NE 2 4 1 2 1018.8 1019.0 8.4
16/04:30am 10.5 10.3 10.3 99 0.1 NNW 2 7 1 4 1018.6 1018.8 8.4
16/04:00am 10.3 10.4 10.0 98 0.2 CALM 0 2 0 1 1018.6 1018.8 8.4
16/03:30am 10.6 9.9 10.1 97 0.3 NNW 4 7 2 4 1018.5 1018.7 8.4
16/03:00am 10.9 9.7 10.3 96 0.3 NW 7 15 4 8 1018.6 1018.8 8.2
16/02:30am 10.9 9.4 10.4 97 0.3 NW 9 19 5 10 1018.6 1018.8 8.2
16/02:00am 10.7 9.7 10.2 97 0.3 NNW 6 13 3 7 1018.6 1018.8 8.2
16/01:30am 10.5 9.4 10.0 97 0.3 NW 6 7 3 4 1018.7 1018.9 8.2
16/01:00am 10.4 9.6 9.8 96 0.3 NW 4 9 2 5 1018.8 1019.0 7.8
16/12:30am 10.5 9.8 10.0 97 0.3 NW 4 9 2 5 1018.9 1019.1 7.8
16/12:00am 10.4 9.7 9.9 97 0.3 NNW 4 7 2 4 1018.9 1019.1 7.8
 
Date/Time
CST
Temp
°C
App
Temp
°C
Dew
Point
°C
Rel
Hum
%
Delta-T
°C
Wind Press
QNH
hPa
Press
MSL
hPa
Rain since
9am
mm
Dir  Spd
km/h
Gust
km/h
Spd
kts
Gust
kts
15/11:30pm 10.4 9.7 10.2 99 0.1 NW 4 9 2 5 1019.0 1019.2 7.8
15/11:00pm 10.3 10.0 10.1 99 0.1 NNW 2 7 1 4 1019.0 1019.2 7.8
15/10:30pm 10.3 9.6 10.0 98 0.2 NNW 4 7 2 4 1019.1 1019.3 7.8
15/10:00pm 10.3 8.2 9.8 97 0.3 NW 11 28 6 15 1019.4 1019.6 7.4
15/09:30pm 11.2 11.2 11.0 99 0.1 NE 2 7 1 4 1019.2 1019.4 7.0
15/09:00pm 10.7 9.8 10.5 99 0.1 NW 6 9 3 5 1019.4 1019.6 7.0
15/08:30pm 10.6 9.4 10.4 99 0.1 NNW 7 11 4 6 1019.4 1019.6 7.0
15/08:00pm 10.8 9.3 10.6 99 0.1 NNW 9 15 5 8 1019.6 1019.8 7.0
15/07:30pm 11.2 9.4 11.0 99 0.1 NNW 11 19 6 10 1019.6 1019.8 6.8
15/07:00pm 11.4 10.1 11.2 99 0.1 NNW 9 20 5 11 1019.5 1019.7 6.8
15/06:30pm 11.3 10.0 11.1 99 0.1 NW 9 17 5 9 1019.3 1019.5 6.8
15/06:00pm 11.4 9.7 11.2 99 0.1 NW 11 20 6 11 1019.2 1019.4 6.8
15/05:30pm 11.2 10.4 11.0 99 0.1 NNW 6 15 3 8 1019.2 1019.4 6.8
15/05:00pm 11.1 8.9 10.9 99 0.1 NNW 13 19 7 10 1019.0 1019.2 6.6
15/04:30pm 11.4 9.7 11.2 99 0.1 NNW 11 19 6 10 1019.0 1019.2 6.6
15/04:00pm 11.5 9.1 11.3 99 0.1 NNW 15 28 8 15 1018.8 1019.0 6.4
15/03:30pm 11.4 8.0 11.1 98 0.2 NNW 20 33 11 18 1018.8 1019.0 6.4
15/03:00pm 10.5 8.1 10.0 97 0.3 NW 13 24 7 13 1018.8 1019.0 5.4
15/02:30pm 11.4 9.7 11.1 98 0.2 NNW 11 19 6 10 1019.0 1019.2 1.0
15/02:00pm 11.4 9.7 11.1 98 0.2 NW 11 28 6 15 1019.2 1019.4 1.0
15/01:30pm 11.3 8.7 10.8 97 0.3 NW 15 22 8 12 1019.4 1019.6 1.0
15/01:00pm 11.4 8.9 11.1 98 0.2 NW 15 24 8 13 1019.7 1020.0 1.0
15/12:30pm 11.4 9.7 11.2 99 0.1 NNW 11 20 6 11 1020.0 1020.3 1.0
15/12:00pm 11.1 9.7 10.9 99 0.1 NNW 9 15 5 8 1020.2 1020.5 1.0
15/11:30am 11.1 10.1 10.9 99 0.1 NNW 7 20 4 11 1020.6 1020.8 1.0
15/11:00am 11.2 10.2 11.0 99 0.1 NNW 7 20 4 11 1020.9 1021.1 1.0
15/10:30am 11.3 10.9 11.1 99 0.1 NE 4 11 2 6 1021.0 1021.2 0.8
15/10:00am 10.5 9.3 10.3 99 0.1 NW 7 13 4 7 1021.2 1021.4 0.0
15/09:30am 10.7 10.6 10.7 100 0.0 NW 2 6 1 3 1021.1 1021.3 0.0
15/09:00am 10.4 9.8 10.4 100 0.0 NNW 4 9 2 5 1021.1 1021.3 4.2
15/08:30am 9.8 9.0 9.8 100 0.0 NNW 4 6 2 3 1021.0 1021.2 4.2
15/08:00am 9.3 9.2 9.3 100 0.0 CALM 0 4 0 2 1020.7 1020.9 4.2
15/07:30am 9.0 8.4 8.9 99 0.0 NNW 2 6 1 3 1020.7 1020.9 4.2
15/07:00am 9.0 8.4 8.9 99 0.0 NNW 2 4 1 2 1020.6 1020.8 4.2
15/06:30am 9.1 8.5 9.0 99 0.0 NNW 2 6 1 3 1020.4 1020.6 4.2
15/06:00am 9.2 8.6 8.9 98 0.1 N 2 4 1 2 1020.1 1020.4 4.2
15/05:30am 8.6 8.2 8.2 97 0.2 CALM 0 2 0 1 1019.9 1020.2 4.2
15/05:00am 8.8 7.2 8.2 96 0.3 NNW 6 7 3 4 1019.8 1020.1 4.2
15/04:30am 8.9 7.7 8.1 95 0.4 NNW 4 6 2 3 1019.8 1020.1 4.2
15/04:00am 9.7 8.3 8.8 94 0.4 NNW 6 7 3 4 1019.9 1020.2 4.2
15/03:30am 9.9 8.4 9.0 94 0.5 NNW 7 9 4 5 1019.9 1020.2 4.2
15/03:00am 9.6 8.2 8.7 94 0.4 NNW 6 9 3 5 1019.9 1020.2 4.2
15/02:30am 9.8 8.2 8.2 90 0.8 NNW 6 9 3 5 1019.9 1020.2 4.2
15/02:00am 10.1 8.3 8.0 87 1.0 NNW 7 11 4 6 1020.0 1020.3 4.2
15/01:30am 9.9 8.4 9.0 94 0.5 NNW 7 9 4 5 1019.9 1020.2 4.2
15/01:00am 9.8 8.9 9.3 97 0.3 NW 4 6 2 3 1020.2 1020.5 4.2
15/12:30am 9.7 8.5 9.4 98 0.2 WNW 6 9 3 5 1020.4 1020.6 4.0
15/12:00am 9.7 8.5 9.6 99 0.1 WNW 6 9 3 5 1020.4 1020.6 4.0
 
Date/Time
CST
Temp
°C
App
Temp
°C
Dew
Point
°C
Rel
Hum
%
Delta-T
°C
Wind Press
QNH
hPa
Press
MSL
hPa
Rain since
9am
mm
Dir  Spd
km/h
Gust
km/h
Spd
kts
Gust
kts
14/11:30pm 9.7 8.5 9.7 100 0.0 WNW 6 7 3 4 1020.6 1020.8 4.0
14/11:00pm 10.1 9.4 10.1 100 0.0 WNW 4 6 2 3 1020.6 1020.8 4.0
14/10:30pm 10.5 9.6 10.5 100 0.0 WNW 6 7 3 4 1020.6 1020.8 4.0
14/10:00pm 10.8 9.7 10.8 100 0.0 NW 7 11 4 6 1020.5 1020.7 4.0
14/09:30pm 10.7 9.6 10.7 100 0.0 NW 7 17 4 9 1020.5 1020.7 4.0
14/09:00pm 11.0 10.2 11.0 100 0.0 NW 6 9 3 5 1020.6 1020.8 4.0
14/08:30pm 10.8 10.7 10.8 100 0.0 WNW 2 4 1 2 1020.6 1020.8 4.0
14/08:00pm 10.8 9.9 10.8 100 0.0 NW 6 7 3 4 1020.4 1020.6 3.6
14/07:30pm 11.0 9.6 11.0 100 0.0 NW 9 13 5 7 1020.1 1020.4 3.6
14/07:00pm 11.6 10.4 11.6 100 0.0 WNW 9 15 5 8 1019.8 1020.1 3.4
14/06:30pm 11.6 10.0 11.6 100 0.0 NW 11 20 6 11 1019.6 1019.8 2.4
14/06:00pm 11.4 10.1 11.4 100 0.0 WNW 9 13 5 7 1019.4 1019.6 2.4
14/05:30pm 11.4 9.8 11.4 100 0.0 NW 11 19 6 10 1019.3 1019.5 2.4
14/05:00pm 11.6 9.6 11.6 100 0.0 NW 13 19 7 10 1019.0 1019.2 2.4
14/04:30pm 11.6 10.0 11.6 100 0.0 NW 11 19 6 10 1018.8 1019.0 2.4
14/04:00pm 11.4 9.3 11.2 99 0.1 NW 13 22 7 12 1018.7 1018.9 2.4
14/03:30pm 11.5 9.1 11.3 99 0.1 NW 15 22 8 12 1018.6 1018.8 2.4
14/03:00pm 12.0 9.8 12.0 100 0.0 NNW 15 22 8 12 1018.2 1018.4 2.4
14/02:30pm 12.0 9.0 11.8 99 0.1 NNW 19 30 10 16 1018.4 1018.6 2.0
14/02:00pm 12.0 9.2 11.4 96 0.3 NNW 17 24 9 13 1018.5 1018.7 1.4
14/01:30pm 12.4 9.1 10.8 90 0.8 NW 19 28 10 15 1018.7 1018.9 1.4
14/01:00pm 12.7 10.4 11.6 93 0.6 NW 15 22 8 12 1018.8 1019.0 1.4
14/12:30pm 12.2 9.9 11.7 97 0.3 NW 15 24 8 13 1019.1 1019.3 1.4
14/12:00pm 11.3 8.6 10.4 94 0.5 NW 15 22 8 12 1019.3 1019.5 1.4
14/11:30am 11.9 10.2 11.3 96 0.3 NW 11 20 6 11 1019.7 1020.0 0.4
14/11:00am 12.4 11.0 10.8 90 0.8 NW 9 15 5 8 1019.8 1020.1 0.0
14/10:30am 12.9 9.8 8.8 76 2.1 WNW 15 20 8 11 1019.9 1020.2 0.0
14/10:00am 12.2 10.1 9.6 84 1.3 WNW 11 17 6 9 1020.0 1020.3 0.0
14/09:30am 12.2 10.4 10.9 92 0.7 WNW 11 15 6 8 1019.9 1020.2 0.0
14/09:00am 11.1 10.1 10.9 99 0.1 WNW 7 9 4 5 1019.7 1020.0 18.8
14/08:30am 10.9 9.9 10.9 100 0.0 WNW 7 9 4 5 1019.5 1019.7 18.8
14/08:00am 11.1 9.4 11.1 100 0.0 WNW 11 15 6 8 1019.1 1019.3 18.8
14/07:30am 11.1 8.2 11.1 100 0.0 WNW 17 33 9 18 1018.8 1019.0 18.8
14/07:00am 10.9 8.4 10.9 100 0.0 WNW 15 24 8 13 1018.4 1018.6 18.8
14/06:30am 10.3 7.2 10.3 100 0.0 WNW 17 28 9 15 1018.1 1018.3 18.6
14/06:00am 10.9 5.9 10.9 100 0.0 WNW 28 43 15 23 1017.7 1017.9 17.6
14/05:53am 10.9 5.9 10.9 100 0.0 NW 28 54 15 29 1017.6 1017.8 16.2
14/05:30am 11.4 7.7 11.4 100 0.0 NW 22 39 12 21 1017.3 1017.5 14.4
14/05:07am 11.4 6.5 11.4 100 0.0 NW 28 48 15 26 1017.0 1017.2 14.2
14/05:00am 11.5 7.8 11.5 100 0.0 NW 22 32 12 17 1016.9 1017.1 14.0
14/04:30am 11.5 7.8 11.5 100 0.0 NW 22 37 12 20 1017.0 1017.2 13.2
14/04:00am 11.5 8.4 11.5 100 0.0 NW 19 35 10 19 1017.4 1017.6 12.4
14/03:30am 11.4 8.2 11.4 100 0.0 NW 19 30 10 16 1017.5 1017.7 8.4
14/03:00am 11.0 8.1 11.0 100 0.0 NNW 17 24 9 13 1017.7 1017.9 8.4
14/02:30am 11.0 8.9 11.0 100 0.0 NW 13 20 7 11 1017.9 1018.1 8.4
14/02:00am 10.6 7.6 10.6 100 0.0 NW 17 24 9 13 1018.0 1018.2 8.4
14/01:30am 10.5 7.5 10.5 100 0.0 WNW 17 24 9 13 1018.3 1018.5 8.4
14/01:00am 11.2 8.4 11.2 100 0.0 NW 17 28 9 15 1018.2 1018.4 7.2
14/12:30am 10.9 8.7 10.9 100 0.0 NNW 13 22 7 12 1018.4 1018.6 6.4
14/12:00am 10.0 8.3 9.9 99 0.1 NNW 9 17 5 9 1018.7 1018.9 5.2
 
Date/Time
CST
Temp
°C
App
Temp
°C
Dew
Point
°C
Rel
Hum
%
Delta-T
°C
Wind Press
QNH
hPa
Press
MSL
hPa
Rain since
9am
mm
Dir  Spd
km/h
Gust
km/h
Spd
kts
Gust
kts
13/11:30pm 9.8 8.1 9.7 99 0.1 NW 9 15 5 8 1018.9 1019.1 4.4
13/11:00pm 10.9 9.5 10.9 100 0.0 NNW 9 15 5 8 1018.8 1019.0 3.0
13/10:30pm 10.6 8.7 10.4 99 0.1 NNW 11 15 6 8 1018.8 1019.0 2.6
13/10:00pm 10.6 9.4 10.4 99 0.1 NW 7 9 4 5 1018.9 1019.1 2.6
13/09:30pm 10.6 8.6 10.3 98 0.2 WNW 11 19 6 10 1018.9 1019.1 2.4
13/09:00pm 10.5 8.9 10.2 98 0.2 WNW 9 13 5 7 1018.9 1019.1 2.4
13/08:30pm 10.2 8.6 10.1 99 0.1 NW 9 13 5 7 1018.9 1019.1 2.4
13/08:00pm 10.6 7.9 10.4 99 0.1 NW 15 24 8 13 1018.9 1019.1 2.4
13/07:30pm 10.3 9.0 10.0 98 0.2 NW 7 9 4 5 1018.6 1018.8 2.0
13/07:00pm 10.4 9.1 9.9 97 0.3 WNW 7 15 4 8 1018.5 1018.7 1.8
13/06:30pm 10.5 8.1 9.9 96 0.3 WNW 13 19 7 10 1018.4 1018.6 1.8
13/06:00pm 10.7 7.1 9.8 94 0.5 WNW 19 32 10 17 1018.3 1018.5 1.8
13/05:30pm 11.9 9.6 10.6 92 0.7 WNW 13 22 7 12 1018.0 1018.2 0.6
13/05:00pm 12.2 9.9 10.4 89 0.9 NW 13 24 7 13 1017.9 1018.1 0.6
13/04:30pm 12.4 10.1 10.5 88 1.0 WNW 13 20 7 11 1017.6 1017.8 0.6
13/04:00pm 12.4 9.5 11.1 92 0.7 NW 17 28 9 15 1017.1 1017.3 0.6
13/03:30pm 12.6 9.8 11.5 93 0.6 NW 17 26 9 14 1016.9 1017.1 0.6
13/03:00pm 12.8 9.9 11.0 89 1.0 WNW 17 33 9 18 1016.9 1017.1 0.6
13/02:30pm 12.7 9.4 11.6 93 0.6 NW 20 30 11 16 1017.0 1017.2 0.6
13/02:00pm 12.2 8.8 11.4 95 0.4 NW 20 30 11 16 1017.0 1017.2 0.6
13/01:30pm 12.9 9.8 11.6 92 0.7 NW 19 35 10 19 1017.3 1017.5 0.6
13/01:00pm 12.9 9.5 11.3 90 0.9 WNW 20 30 11 16 1017.5 1017.7 0.6
13/12:30pm 12.1 8.7 11.3 95 0.4 NW 20 32 11 17 1017.7 1017.9 0.6
13/12:00pm 12.3 9.4 12.3 100 0.0 NW 19 28 10 15 1017.7 1017.9 0.6
13/11:30am 11.7 8.4 11.7 100 0.0 WNW 20 33 11 18 1017.6 1017.8 0.6
13/11:00am 11.6 8.5 11.6 100 0.0 NW 19 32 10 17 1017.8 1018.0 0.0

Latest Capital City Observations: Canberra | Sydney | Melbourne | Brisbane | Adelaide | Perth | Hobart | Darwin

Other formats

Comma delimited format used in spreadsheet applications
http://www.bom.gov.au/fwo/IDS60901/IDS60901.94811.axf

JavaScript Object Notation format (JSON) in row-major order
http://www.bom.gov.au/fwo/IDS60901/IDS60901.94811.json

Data quality

Most of these data are generated automatically and are frequently updated. Quality checks on data are not normally performed. It is possible for incorrect values to appear. Refer to information at About Latest Weather Observations and please check the disclaimer before using these data.